Flugplatz Berlin-Schönefeld International

Bericht für EDDB

vom 15.07. um 18:50 UTC

Wind 3 kt aus 60°

Sichtweite 10 km oder mehr

gute Sicht, keine Wolken < 5000 ft, keine CB, keine Wettererscheinungen (CAVOK)

Temperatur 22.0°C

Taupunkt 11.0°C

Luftfeuchtigkeit 50%

Luftdruck 1015 hPa

keine wesentliche Wetteränderung innerhalb den nächsten 2 Stunden zu erwarten

EDDB 151850Z 06003KT CAVOK 22/11 Q1015 NOSIG

Prognose für EDDB

vom 15.07. um 17:00 UTC

Zwischen 18:00 UTC und 20:00 UTC

Wind 6 kt aus 10°

Sichtweite 10 km oder mehr

keine signifikanten Wettererscheinungen

keine Wolken


Zwischen 20:00 und 23:00 UTC übergehend zu

variable Windrichtung mit 3 kt

Sichtweite 10 km oder mehr

keine signifikanten Wettererscheinungen

keine Wolken


Am 16.07. zwischen 08:00 und 11:00 UTC übergehend zu

Wind 6 kt aus 360°

Sichtweite 10 km oder mehr

keine signifikanten Wettererscheinungen

keine Wolken

TAF EDDB 151700Z 1518/1618 01006KT CAVOK BECMG 1520/1523 VRB03KT BECMG 1608/1611 36006KT
Impressum